createdAt,value
2017-02-05T00:00:45.334Z,45.15
2017-02-05T00:01:45.049Z,42.97
2017-02-05T00:02:45.125Z,43.07
2017-02-05T00:03:44.955Z,43.73
2017-02-05T00:04:45.070Z,43.63
2017-02-05T00:05:44.523Z,43.07
2017-02-05T00:06:44.915Z,42.11
2017-02-05T00:07:44.891Z,42.5
2017-02-05T00:08:44.876Z,41.27
2017-02-05T00:09:44.464Z,40.51
2017-02-05T00:10:44.845Z,39.65
2017-02-05T00:11:44.830Z,37.95
2017-02-05T00:12:44.819Z,38.81
2017-02-05T00:13:44.804Z,39.84
2017-02-05T00:14:44.389Z,40.13
2017-02-05T00:15:44.771Z,39.84
2017-02-05T00:16:44.529Z,40.41
2017-02-05T00:17:44.740Z,40.32
2017-02-05T00:18:44.727Z,39.75
2017-02-05T00:19:44.713Z,38.81
2017-02-05T00:20:44.874Z,38.52
2017-02-05T00:21:44.821Z,38.81
2017-02-05T00:22:44.776Z,38.81
2017-02-05T00:23:44.725Z,36.72
2017-02-05T00:24:44.766Z,36.15
2017-02-05T00:25:44.732Z,36.15
2017-02-05T00:26:44.698Z,37.01
2017-02-05T00:27:44.603Z,37.19
2017-02-05T00:28:44.586Z,38.24
2017-02-05T00:29:44.558Z,38.9
2017-02-05T00:30:44.542Z,39.47
2017-02-05T00:31:44.530Z,40.03
2017-02-05T00:32:44.514Z,41.17
2017-02-05T00:33:44.635Z,42.3
2017-02-05T00:34:44.553Z,43.91
2017-02-05T00:35:44.656Z,44.51
2017-02-05T00:36:44.681Z,44.6
2017-02-05T00:37:44.653Z,45.72
2017-02-05T00:38:44.633Z,47.7
2017-02-05T00:39:44.160Z,47.82
2017-02-05T00:40:44.655Z,48.36
2017-02-05T00:41:44.679Z,48.74
2017-02-05T00:42:44.638Z,50.28
2017-02-05T00:43:44.514Z,50.47
2017-02-05T00:44:44.468Z,50.82
2017-02-05T00:45:44.405Z,50.35
2017-02-05T00:46:44.421Z,51.32
2017-02-05T00:47:44.297Z,51.7
2017-02-05T00:48:44.283Z,52.27
2017-02-05T00:49:44.259Z,52.15
2017-02-05T00:50:44.240Z,52.27
2017-02-05T00:51:44.226Z,52.56
2017-02-05T00:52:44.209Z,51.14
2017-02-05T00:53:44.201Z,50.92
2017-02-05T00:54:44.183Z,51.04
2017-02-05T00:55:43.771Z,50.92
2017-02-05T00:56:44.154Z,51.11
2017-02-05T00:57:44.137Z,51.01
2017-02-05T00:58:44.122Z,49.79
2017-02-05T00:59:44.104Z,49.12
2017-02-05T01:00:44.174Z,48.46
2017-02-05T01:01:44.182Z,48.46
2017-02-05T01:02:44.194Z,48.74
2017-02-05T01:03:44.206Z,48.68
2017-02-05T01:04:43.646Z,48.93
2017-02-05T01:05:44.145Z,49.81
2017-02-05T01:06:44.129Z,50.57
2017-02-05T01:07:44.120Z,50.76
2017-02-05T01:08:44.101Z,51.39
2017-02-05T01:09:43.957Z,51.8
2017-02-05T01:10:43.957Z,51.61
2017-02-05T01:11:43.927Z,51.04
2017-02-05T01:12:43.914Z,51.04
2017-02-05T01:13:43.897Z,50.95
2017-02-05T01:14:43.883Z,51.04
2017-02-05T01:15:43.870Z,51.7
2017-02-05T01:16:43.853Z,51.8
2017-02-05T01:17:43.893Z,51.99
2017-02-05T01:18:43.974Z,52.18
2017-02-05T01:19:43.960Z,52.27
2017-02-05T01:20:43.698Z,52.37
2017-02-05T01:21:44.058Z,52.37
2017-02-05T01:22:44.007Z,52.06
2017-02-05T01:23:44.138Z,51.99
2017-02-05T01:24:44.026Z,51.32
2017-02-05T01:25:43.897Z,51.3
2017-02-05T01:26:43.832Z,52.08
2017-02-05T01:27:43.837Z,52.46
2017-02-05T01:28:43.744Z,52.18
2017-02-05T01:29:43.786Z,52.15
2017-02-05T01:30:43.667Z,52.94
2017-02-05T01:31:43.640Z,53.28
2017-02-05T01:32:43.611Z,54.26
2017-02-05T01:33:43.595Z,54.33
2017-02-05T01:34:43.581Z,52.53
2017-02-05T01:35:43.568Z,52.06
2017-02-05T01:36:43.551Z,52.15
2017-02-05T01:37:43.538Z,52.25
2017-02-05T01:38:43.520Z,51.68
2017-02-05T01:39:43.510Z,51.39
2017-02-05T01:40:43.491Z,51.11
2017-02-05T01:41:43.514Z,50.73
2017-02-05T01:42:43.465Z,51.58
2017-02-05T01:43:43.447Z,51.58
2017-02-05T01:44:43.500Z,51.68
2017-02-05T01:45:43.539Z,52.25
2017-02-05T01:46:43.401Z,53.09
2017-02-05T01:47:43.548Z,53.47
2017-02-05T01:48:43.481Z,53.38
2017-02-05T01:49:43.356Z,53.38
2017-02-05T01:50:43.467Z,53.19
2017-02-05T01:51:43.418Z,52.81
2017-02-05T01:52:43.421Z,51.87
2017-02-05T01:53:43.297Z,51.11
2017-02-05T01:54:43.280Z,51.11
2017-02-05T01:55:43.264Z,50.92
2017-02-05T01:56:43.249Z,51.2
2017-02-05T01:57:43.236Z,51.2
2017-02-05T01:58:43.221Z,51.01
2017-02-05T01:59:43.203Z,51.77
2017-02-05T02:00:43.189Z,51.3
2017-02-05T02:01:43.172Z,51.11
2017-02-05T02:02:43.156Z,51.11
2017-02-05T02:03:43.143Z,50.92
2017-02-05T02:04:43.127Z,51.11
2017-02-05T02:05:48.879Z,51.39
2017-02-05T02:06:43.098Z,51.96
2017-02-05T02:07:43.084Z,52.34
2017-02-05T02:08:43.064Z,52.25
2017-02-05T02:09:43.052Z,52.91
2017-02-05T02:10:43.037Z,53.09
2017-02-05T02:11:42.625Z,53.57
2017-02-05T02:12:43.004Z,54.8
2017-02-05T02:13:42.594Z,54.23
2017-02-05T02:14:42.976Z,54.33
2017-02-05T02:15:42.963Z,54.8
2017-02-05T02:16:42.947Z,55.27
2017-02-05T02:17:42.933Z,55.08
2017-02-05T02:18:42.914Z,54.8
2017-02-05T02:19:42.934Z,54.8
2017-02-05T02:20:42.885Z,54.8
2017-02-05T02:21:42.869Z,55.21
2017-02-05T02:22:42.853Z,54.8
2017-02-05T02:23:42.879Z,54.04
2017-02-05T02:24:42.823Z,54.8
2017-02-05T02:25:42.809Z,54.99
2017-02-05T02:26:42.794Z,55.27
2017-02-05T02:27:42.779Z,55.84
2017-02-05T02:28:42.764Z,55.56
2017-02-05T02:29:42.750Z,55.27
2017-02-05T02:30:42.733Z,55.65
2017-02-05T02:31:42.718Z,55.27
2017-02-05T02:32:42.703Z,55.37
2017-02-05T02:33:42.689Z,54.9
2017-02-05T02:34:42.673Z,55.08
2017-02-05T02:35:42.659Z,55.37
2017-02-05T02:36:42.646Z,55.08
2017-02-05T02:37:42.629Z,55.49
2017-02-05T02:38:42.612Z,55.46
2017-02-05T02:39:42.598Z,55.94
2017-02-05T02:40:42.185Z,55.94
2017-02-05T02:41:42.569Z,56.03
2017-02-05T02:42:42.556Z,55.56
2017-02-05T02:43:42.537Z,55.08
2017-02-05T02:44:42.526Z,55.75
2017-02-05T02:45:42.508Z,55.08
2017-02-05T02:46:42.495Z,55.56
2017-02-05T02:47:42.478Z,56.32
2017-02-05T02:48:42.463Z,57.29
2017-02-05T02:49:42.445Z,56.41
2017-02-05T02:50:42.433Z,57.07
2017-02-05T02:51:42.419Z,57.35
2017-02-05T02:52:42.402Z,57.64
2017-02-05T02:53:42.388Z,57.64
2017-02-05T02:54:42.405Z,57.17
2017-02-05T02:55:42.355Z,57.83
2017-02-05T02:56:42.344Z,58.02
2017-02-05T02:57:42.328Z,57.83
2017-02-05T02:58:42.413Z,58.02
2017-02-05T02:59:42.296Z,58.02
2017-02-05T03:00:42.281Z,57.73
2017-02-05T03:01:42.268Z,57.54
2017-02-05T03:02:42.252Z,58.02
2017-02-05T03:03:42.236Z,57.54
2017-02-05T03:04:42.224Z,57.64
2017-02-05T03:05:42.205Z,57.35
2017-02-05T03:06:42.192Z,57.17
2017-02-05T03:07:42.179Z,57.17
2017-02-05T03:08:42.164Z,56.32
2017-02-05T03:09:42.182Z,56.03
2017-02-05T03:10:42.131Z,55.56
2017-02-05T03:11:42.115Z,55.84
2017-02-05T03:12:42.103Z,55.08
2017-02-05T03:13:42.084Z,54.99
2017-02-05T03:14:42.071Z,53
2017-02-05T03:15:41.659Z,53.09
2017-02-05T03:16:42.044Z,53.09
2017-02-05T03:17:42.024Z,52.06
2017-02-05T03:18:42.011Z,52.15
2017-02-05T03:19:41.997Z,51.01
2017-02-05T03:20:41.983Z,50.35
2017-02-05T03:21:41.964Z,50.45
2017-02-05T03:22:41.950Z,50.07
2017-02-05T03:23:41.932Z,49.88
2017-02-05T03:24:41.920Z,49.41
2017-02-05T03:25:41.903Z,48.93
2017-02-05T03:26:41.493Z,48.55
2017-02-05T03:27:41.873Z,48.65
2017-02-05T03:28:41.461Z,48.84
2017-02-05T03:29:41.843Z,48.36
2017-02-05T03:30:41.827Z,48.18
2017-02-05T03:31:41.811Z,47.61
2017-02-05T03:32:41.798Z,47.23
2017-02-05T03:33:41.785Z,47.7
2017-02-05T03:34:41.769Z,47.89
2017-02-05T03:35:41.755Z,48.46
2017-02-05T03:36:41.736Z,48.46
2017-02-05T03:37:41.730Z,48.46
2017-02-05T03:38:41.706Z,48.84
2017-02-05T03:39:41.694Z,48.74
2017-02-05T03:40:41.677Z,48.74
2017-02-05T03:41:41.661Z,48.84
2017-02-05T03:42:41.650Z,49.22
2017-02-05T03:43:41.633Z,49.03
2017-02-05T03:44:41.619Z,49.12
2017-02-05T03:45:41.603Z,49.03
2017-02-05T03:46:41.584Z,50.16
2017-02-05T03:47:41.576Z,48.55
2017-02-05T03:48:41.559Z,48.36
2017-02-05T03:49:41.541Z,48.55
2017-02-05T03:50:41.525Z,47.8
2017-02-05T03:51:41.519Z,48.36
2017-02-05T03:52:41.496Z,46.56
2017-02-05T03:53:41.083Z,46.37
2017-02-05T03:54:41.464Z,46.19
2017-02-05T03:55:41.450Z,46.37
2017-02-05T03:56:41.038Z,46.47
2017-02-05T03:57:41.422Z,46.37
2017-02-05T03:58:41.404Z,46.28
2017-02-05T03:59:41.394Z,45.81
2017-02-05T04:00:41.374Z,45.43
2017-02-05T04:01:41.360Z,45.53
2017-02-05T04:02:41.344Z,45.15
2017-02-05T04:03:41.332Z,44.96
2017-02-05T04:04:41.314Z,44.77
2017-02-05T04:05:41.298Z,44.2
2017-02-05T04:06:41.287Z,44.1
2017-02-05T04:07:41.270Z,43.91
2017-02-05T04:08:41.252Z,43.82
2017-02-05T04:09:41.239Z,43.73
2017-02-05T04:10:41.226Z,43.54
2017-02-05T04:11:41.257Z,43.82
2017-02-05T04:12:41.195Z,44.01
2017-02-05T04:13:41.176Z,44.1
2017-02-05T04:14:41.162Z,43.82
2017-02-05T04:15:41.147Z,44.29
2017-02-05T04:16:41.132Z,44.1
2017-02-05T04:17:41.118Z,43.91
2017-02-05T04:18:41.103Z,43.26
2017-02-05T04:19:41.085Z,43.26
2017-02-05T04:20:41.071Z,43.26
2017-02-05T04:21:41.055Z,42.69
2017-02-05T04:22:41.039Z,42.69
2017-02-05T04:23:41.024Z,42.59
2017-02-05T04:24:41.007Z,41.83
2017-02-05T04:25:40.993Z,41.74
2017-02-05T04:26:40.980Z,41.74
2017-02-05T04:27:40.972Z,41.46
2017-02-05T04:28:40.948Z,41.08
2017-02-05T04:29:40.934Z,40.22
2017-02-05T04:30:40.918Z,40.32
2017-02-05T04:31:40.902Z,40.13
2017-02-05T04:32:40.888Z,39.75
2017-02-05T04:33:40.873Z,39.56
2017-02-05T04:34:40.858Z,39.75
2017-02-05T04:35:40.844Z,39.37
2017-02-05T04:36:40.827Z,38.81
2017-02-05T04:37:40.812Z,38.14
2017-02-05T04:38:40.797Z,37.01
2017-02-05T04:39:40.384Z,36.63
2017-02-05T04:40:40.767Z,37.1
2017-02-05T04:41:40.752Z,36.72
2017-02-05T04:42:40.737Z,36.72
2017-02-05T04:43:40.721Z,35.58
2017-02-05T04:44:40.709Z,35.49
2017-02-05T04:45:40.692Z,35.11
2017-02-05T04:46:40.678Z,34.64
2017-02-05T04:47:40.661Z,34.74
2017-02-05T04:48:40.642Z,34.26
2017-02-05T04:49:40.631Z,34.07
2017-02-05T04:50:40.614Z,34.07
2017-02-05T04:51:40.599Z,33.03
2017-02-05T04:52:40.584Z,32.84
2017-02-05T04:53:40.641Z,32.56
2017-02-05T04:54:40.556Z,32.46
2017-02-05T04:55:40.540Z,32.28
2017-02-05T04:56:40.241Z,32.46
2017-02-05T04:57:40.229Z,33.03
2017-02-05T04:58:40.198Z,33.31
2017-02-05T04:59:40.177Z,33.12
2017-02-05T05:00:40.461Z,33.03
2017-02-05T05:01:40.445Z,33.41
2017-02-05T05:02:40.442Z,33.22
2017-02-05T05:03:40.418Z,33.6
2017-02-05T05:04:40.406Z,33.79
2017-02-05T05:05:40.384Z,33.98
2017-02-05T05:06:39.975Z,33.98
2017-02-05T05:07:40.359Z,34.36
2017-02-05T05:08:40.343Z,33.98
2017-02-05T05:09:40.328Z,34.45
2017-02-05T05:10:40.348Z,34.64
2017-02-05T05:11:40.295Z,34.74
2017-02-05T05:12:39.882Z,35.11
2017-02-05T05:13:40.264Z,35.21
2017-02-05T05:14:40.248Z,35.21
2017-02-05T05:15:40.235Z,35.21
2017-02-05T05:16:40.220Z,34.55
2017-02-05T05:17:40.205Z,35.3
2017-02-05T05:18:40.190Z,35.39
2017-02-05T05:19:40.174Z,35.21
2017-02-05T05:20:39.760Z,35.58
2017-02-05T05:21:40.144Z,36.06
2017-02-05T05:22:40.126Z,36.15
2017-02-05T05:23:40.117Z,35.96
2017-02-05T05:24:40.099Z,36.54
2017-02-05T05:25:40.080Z,36.72
2017-02-05T05:26:40.066Z,36.15
2017-02-05T05:27:40.054Z,36.44
2017-02-05T05:28:40.042Z,36.82
2017-02-05T05:29:40.029Z,37.48
2017-02-05T05:30:40.010Z,37.67
2017-02-05T05:31:39.998Z,38.33
2017-02-05T05:32:39.980Z,38.43
2017-02-05T05:33:39.964Z,38.52
2017-02-05T05:34:39.950Z,38.71
2017-02-05T05:35:39.939Z,38.71
2017-02-05T05:36:39.919Z,38.14
2017-02-05T05:37:39.911Z,37.48
2017-02-05T05:38:39.890Z,37.1
2017-02-05T05:39:39.478Z,37.1
2017-02-05T05:40:39.861Z,37.1
2017-02-05T05:41:39.849Z,36.91
2017-02-05T05:42:39.827Z,37.1
2017-02-05T05:43:39.817Z,36.82
2017-02-05T05:44:39.799Z,37.1
2017-02-05T05:45:39.789Z,37.01
2017-02-05T05:46:39.770Z,37.1
2017-02-05T05:47:39.757Z,37.01
2017-02-05T05:48:39.739Z,36.72
2017-02-05T05:49:39.727Z,37.01
2017-02-05T05:50:39.710Z,36.44
2017-02-05T05:51:39.696Z,35.77
2017-02-05T05:52:39.281Z,36.15
2017-02-05T05:53:39.666Z,36.06
2017-02-05T05:54:39.648Z,36.15
2017-02-05T05:55:39.633Z,36.06
2017-02-05T05:56:39.619Z,36.06
2017-02-05T05:57:39.608Z,35.77
2017-02-05T05:58:39.587Z,35.49
2017-02-05T05:59:39.577Z,35.3
2017-02-05T06:00:39.559Z,34.26
2017-02-05T06:01:39.543Z,34.64
2017-02-05T06:02:39.526Z,33.79
2017-02-05T06:03:39.513Z,32.93
2017-02-05T06:04:39.101Z,33.12
2017-02-05T06:05:39.483Z,32.46
2017-02-05T06:06:39.464Z,31.61
2017-02-05T06:07:39.448Z,31.8
2017-02-05T06:08:39.436Z,31.61
2017-02-05T06:09:39.024Z,31.8
2017-02-05T06:10:39.408Z,31.8
2017-02-05T06:11:39.388Z,31.14
2017-02-05T06:12:39.379Z,30.95
2017-02-05T06:13:39.357Z,31.14
2017-02-05T06:14:39.344Z,30.57
2017-02-05T06:15:39.327Z,31.14
2017-02-05T06:16:39.312Z,31.23
2017-02-05T06:17:39.296Z,30.47
2017-02-05T06:18:39.285Z,29.15
2017-02-05T06:19:39.267Z,28.39
2017-02-05T06:20:39.254Z,27.73
2017-02-05T06:21:39.241Z,27.54
2017-02-05T06:22:39.224Z,27.07
2017-02-05T06:23:39.204Z,27.16
2017-02-05T06:24:39.193Z,26.59
2017-02-05T06:25:39.180Z,26.21
2017-02-05T06:26:39.170Z,26.03
2017-02-05T06:27:39.146Z,26.03
2017-02-05T06:28:39.128Z,25.27
2017-02-05T06:29:39.116Z,25.18
2017-02-05T06:30:39.101Z,24.99
2017-02-05T06:31:39.081Z,24.23
2017-02-05T06:32:39.071Z,24.13
2017-02-05T06:33:39.053Z,24.32
2017-02-05T06:34:39.040Z,24.04
2017-02-05T06:35:39.024Z,24.23
2017-02-05T06:36:39.007Z,23.94
2017-02-05T06:37:38.989Z,23.94
2017-02-05T06:38:38.973Z,23.75
2017-02-05T06:39:38.965Z,23.75
2017-02-05T06:40:38.547Z,23.75
2017-02-05T06:41:38.929Z,23.09
2017-02-05T06:42:38.558Z,23.47
2017-02-05T06:43:38.501Z,23.19
2017-02-05T06:44:38.891Z,23
2017-02-05T06:45:38.870Z,23.38
2017-02-05T06:46:38.460Z,23.28
2017-02-05T06:47:38.837Z,23.66
2017-02-05T06:48:38.825Z,23.28
2017-02-05T06:49:38.412Z,23.28
2017-02-05T06:50:38.793Z,23.28
2017-02-05T06:51:38.777Z,23.28
2017-02-05T06:52:38.760Z,23.47
2017-02-05T06:53:38.747Z,23.57
2017-02-05T06:54:38.731Z,23.85
2017-02-05T06:55:38.722Z,23.85
2017-02-05T06:56:38.702Z,23.94
2017-02-05T06:57:38.683Z,24.13
2017-02-05T06:58:38.670Z,24.13
2017-02-05T06:59:38.656Z,24.32
2017-02-05T07:00:38.639Z,24.32
2017-02-05T07:01:38.626Z,24.7
2017-02-05T07:02:38.610Z,25.18
2017-02-05T07:03:38.630Z,25.37
2017-02-05T07:04:38.181Z,25.65
2017-02-05T07:05:38.559Z,25.46
2017-02-05T07:06:38.546Z,25.84
2017-02-05T07:07:38.535Z,26.31
2017-02-05T07:08:38.806Z,26.59
2017-02-05T07:09:38.602Z,27.07
2017-02-05T07:10:38.487Z,27.07
2017-02-05T07:11:38.472Z,27.45
2017-02-05T07:12:38.057Z,27.45
2017-02-05T07:13:38.441Z,27.54
2017-02-05T07:14:38.423Z,27.07
2017-02-05T07:15:38.412Z,27.45
2017-02-05T07:16:38.395Z,27.92
2017-02-05T07:17:38.378Z,27.92
2017-02-05T07:18:38.362Z,28.96
2017-02-05T07:19:38.355Z,29.05
2017-02-05T07:20:38.333Z,29.43
2017-02-05T07:21:38.322Z,29.24
2017-02-05T07:22:37.908Z,29.05
2017-02-05T07:23:37.892Z,29.05
2017-02-05T07:24:38.280Z,29.24
2017-02-05T07:25:38.258Z,29.43
2017-02-05T07:26:38.243Z,29.62
2017-02-05T07:27:38.227Z,30.29
2017-02-05T07:28:38.212Z,29.91
2017-02-05T07:29:38.197Z,30.66
2017-02-05T07:30:38.178Z,31.71
2017-02-05T07:31:38.166Z,31.9
2017-02-05T07:32:38.152Z,31.8
2017-02-05T07:33:37.738Z,32.84
2017-02-05T07:34:38.123Z,33.31
2017-02-05T07:35:38.159Z,33.12
2017-02-05T07:36:37.692Z,35.11
2017-02-05T07:37:38.076Z,34.55
2017-02-05T07:38:38.062Z,34.64
2017-02-05T07:39:38.046Z,35.77
2017-02-05T07:40:38.032Z,35.87
2017-02-05T07:41:38.014Z,36.72
2017-02-05T07:42:37.999Z,37.01
2017-02-05T07:43:37.985Z,36.54
2017-02-05T07:44:37.969Z,38.33
2017-02-05T07:45:37.965Z,38.9
2017-02-05T07:46:37.543Z,39.28
2017-02-05T07:47:37.924Z,38.9
2017-02-05T07:48:37.910Z,39.56
2017-02-05T07:49:37.903Z,40.13
2017-02-05T07:50:37.477Z,41.27
2017-02-05T07:51:37.865Z,41.64
2017-02-05T07:52:37.848Z,42.4
2017-02-05T07:53:37.832Z,42.59
2017-02-05T07:54:37.419Z,44.29
2017-02-05T07:55:37.804Z,43.54
2017-02-05T07:56:37.789Z,43.07
2017-02-05T07:57:37.776Z,43.82
2017-02-05T07:58:37.757Z,46
2017-02-05T07:59:37.345Z,47.04
2017-02-05T08:00:37.725Z,47.8
2017-02-05T08:01:37.712Z,47.7
2017-02-05T08:02:37.698Z,47.61
2017-02-05T08:03:37.684Z,48.74
2017-02-05T08:04:37.267Z,49.12
2017-02-05T08:05:37.259Z,48.74
2017-02-05T08:06:37.638Z,49.5
2017-02-05T08:07:37.621Z,50.92
2017-02-05T08:08:37.606Z,51.01
2017-02-05T08:09:37.594Z,51.11
2017-02-05T08:10:37.578Z,50.16
2017-02-05T08:11:38.191Z,51.2
2017-02-05T08:12:37.149Z,52.62
2017-02-05T08:13:37.134Z,54.14
2017-02-05T08:14:37.515Z,53.38
2017-02-05T08:15:37.152Z,53
2017-02-05T08:16:37.488Z,53.09
2017-02-05T08:17:37.471Z,54.52
2017-02-05T08:18:37.479Z,56.13
2017-02-05T08:19:37.443Z,57.26
2017-02-05T08:20:37.427Z,58.4
2017-02-05T08:21:37.013Z,58.21
2017-02-05T08:22:37.397Z,56.98
2017-02-05T08:23:37.417Z,57.35
2017-02-05T08:24:36.967Z,60.29
2017-02-05T08:25:37.403Z,60.19
2017-02-05T08:26:37.332Z,62.47
2017-02-05T08:27:37.314Z,63.35
2017-02-05T08:28:37.299Z,62.94
2017-02-05T08:29:36.888Z,62.75
2017-02-05T08:30:37.270Z,62.94
2017-02-05T08:31:36.857Z,64.45
2017-02-05T08:32:37.240Z,65.21
2017-02-05T08:33:36.824Z,65.4
2017-02-05T08:34:37.259Z,66.92
2017-02-05T08:35:37.194Z,68.46
2017-02-05T08:36:37.177Z,71.12
2017-02-05T08:37:37.164Z,71.4
2017-02-05T08:38:37.174Z,71.12
2017-02-05T08:39:36.735Z,75.85
2017-02-05T08:40:37.121Z,78.5
2017-02-05T08:41:36.708Z,78.69
2017-02-05T08:42:37.090Z,78.41
2017-02-05T08:43:36.680Z,81.15
2017-02-05T08:44:37.060Z,81.15
2017-02-05T08:45:37.046Z,81.82
2017-02-05T08:46:37.030Z,82.29
2017-02-05T08:47:37.018Z,85.13
2017-02-05T08:48:37.003Z,86.46
2017-02-05T08:49:36.990Z,87.31
2017-02-05T08:50:36.974Z,88.07
2017-02-05T08:51:36.960Z,89.68
2017-02-05T08:52:36.943Z,91.1
2017-02-05T08:53:36.930Z,92.43
2017-02-05T08:54:36.913Z,91.29
2017-02-05T08:55:36.901Z,89.49
2017-02-05T08:56:36.884Z,89.58
2017-02-05T08:57:36.868Z,90.44
2017-02-05T08:58:36.854Z,90.15
2017-02-05T08:59:36.841Z,90.44
2017-02-05T09:00:36.824Z,89.39
2017-02-05T09:01:36.812Z,89.96
2017-02-05T09:02:36.796Z,90.63
2017-02-05T09:03:36.784Z,91.1
2017-02-05T09:04:36.768Z,88.92
2017-02-05T09:05:36.750Z,89.3
2017-02-05T09:06:36.736Z,90.44
2017-02-05T09:07:36.722Z,89.68
2017-02-05T09:08:36.710Z,88.82
2017-02-05T09:09:36.691Z,88.64
2017-02-05T09:10:36.678Z,87.31
2017-02-05T09:11:36.662Z,87.4
2017-02-05T09:12:36.647Z,91.57
2017-02-05T09:13:36.635Z,93.08
2017-02-05T09:14:36.622Z,92.71
2017-02-05T09:15:36.602Z,92.61
2017-02-05T09:16:36.595Z,94.6
2017-02-05T09:17:36.575Z,94.23
2017-02-05T09:18:36.562Z,93.65
2017-02-05T09:19:36.551Z,96.31
2017-02-05T09:20:36.533Z,95.07
2017-02-05T09:21:36.518Z,96.02
2017-02-05T09:22:36.503Z,96.5
2017-02-05T09:23:36.486Z,98.49
2017-02-05T09:24:36.472Z,99.81
2017-02-05T09:25:36.461Z,99.9
2017-02-05T09:26:36.444Z,99.99
2017-02-05T09:27:36.432Z,99.99
2017-02-05T09:28:36.415Z,99.99
2017-02-05T09:29:36.402Z,99.99
2017-02-05T09:30:36.384Z,99.99
2017-02-05T09:31:35.973Z,99.99
2017-02-05T09:32:36.358Z,99.99
2017-02-05T09:33:36.344Z,99.99
2017-02-05T09:34:36.327Z,99.99
2017-02-05T09:35:36.313Z,99.99
2017-02-05T09:36:36.299Z,99.99
2017-02-05T09:37:36.284Z,99.99
2017-02-05T09:38:35.873Z,99.99
2017-02-05T09:39:36.256Z,99.99
2017-02-05T09:40:36.242Z,99.99
2017-02-05T09:41:36.239Z,99.99
2017-02-05T09:42:36.211Z,99.99
2017-02-05T09:43:36.196Z,99.99
2017-02-05T09:44:36.198Z,99.99
2017-02-05T09:45:36.170Z,99.99
2017-02-05T09:46:36.156Z,99.99
2017-02-05T09:47:36.141Z,99.99
2017-02-05T09:48:36.123Z,99.99
2017-02-05T09:49:36.110Z,99.99
2017-02-05T09:50:36.099Z,99.99
2017-02-05T09:51:36.084Z,99.99
2017-02-05T09:52:36.071Z,99.99
2017-02-05T09:53:36.056Z,99.99
2017-02-05T09:54:36.039Z,99.99
2017-02-05T09:55:36.028Z,99.99
2017-02-05T09:56:36.009Z,99.99
2017-02-05T09:57:36.003Z,99.99
2017-02-05T09:58:35.981Z,99.99
2017-02-05T09:59:35.968Z,99.99
2017-02-05T10:00:35.951Z,99.99
2017-02-05T10:01:35.942Z,99.99
2017-02-05T10:02:35.926Z,99.99
2017-02-05T10:03:35.912Z,99.99
2017-02-05T10:04:35.899Z,99.99
2017-02-05T10:05:35.885Z,99.99
2017-02-05T10:06:35.867Z,99.99
2017-02-05T10:07:35.853Z,99.99
2017-02-05T10:08:35.838Z,99.99
2017-02-05T10:09:35.824Z,99.99
2017-02-05T10:10:35.812Z,99.99
2017-02-05T10:11:35.799Z,99.99
2017-02-05T10:12:35.787Z,99.99
2017-02-05T10:13:35.773Z,99.99
2017-02-05T10:14:35.758Z,99.99
2017-02-05T10:15:35.741Z,99.99
2017-02-05T10:16:35.730Z,99.99
2017-02-05T10:17:35.716Z,99.99
2017-02-05T10:18:35.702Z,99.99
2017-02-05T10:19:35.691Z,99.99
2017-02-05T10:20:35.675Z,99.99
2017-02-05T10:21:35.662Z,99.99
2017-02-05T10:22:35.647Z,99.99
2017-02-05T10:23:35.631Z,99.99
2017-02-05T10:24:35.620Z,99.99
2017-02-05T10:25:35.609Z,99.99
2017-02-05T10:26:35.592Z,99.99
2017-02-05T10:27:35.582Z,99.99
2017-02-05T10:28:35.565Z,99.99
2017-02-05T10:29:35.155Z,99.99
2017-02-05T10:30:35.547Z,99.99
2017-02-05T10:31:35.544Z,99.99
2017-02-05T10:32:35.513Z,99.99
2017-02-05T10:33:35.502Z,99.99
2017-02-05T10:34:35.090Z,99.99
2017-02-05T10:35:35.475Z,99.99
2017-02-05T10:36:35.461Z,99.99
2017-02-05T10:37:35.447Z,99.99
2017-02-05T10:38:35.436Z,99.99
2017-02-05T10:39:35.033Z,99.99
2017-02-05T10:40:35.409Z,99.99
2017-02-05T10:41:35.400Z,99.99
2017-02-05T10:42:35.396Z,99.99
2017-02-05T10:43:35.371Z,99.99
2017-02-05T10:44:35.357Z,99.99
2017-02-05T10:45:35.347Z,99.99
2017-02-05T10:46:35.331Z,99.99
2017-02-05T10:47:35.322Z,99.99
2017-02-05T10:48:34.910Z,99.99
2017-02-05T10:49:35.293Z,99.99
2017-02-05T10:50:35.282Z,99.99
2017-02-05T10:51:35.270Z,99.99
2017-02-05T10:52:35.257Z,99.99
2017-02-05T10:53:35.248Z,99.99
2017-02-05T10:54:35.232Z,99.99
2017-02-05T10:55:35.215Z,99.99
2017-02-05T10:56:35.205Z,99.99
2017-02-05T10:57:35.193Z,99.99
2017-02-05T10:58:35.180Z,99.99
2017-02-05T10:59:35.164Z,99.99
2017-02-05T11:00:35.153Z,99.99
2017-02-05T11:01:35.141Z,99.99
2017-02-05T11:02:35.130Z,99.99
2017-02-05T11:03:35.117Z,99.99
2017-02-05T11:04:35.108Z,99.99
2017-02-05T11:05:35.122Z,99.99
2017-02-05T11:06:35.079Z,99.99
2017-02-05T11:07:35.065Z,99.99
2017-02-05T11:08:35.094Z,99.99
2017-02-05T11:09:35.042Z,99.99
2017-02-05T11:10:35.029Z,99.99
2017-02-05T11:11:35.016Z,99.99
2017-02-05T11:12:35.002Z,99.99
2017-02-05T11:13:34.593Z,99.99
2017-02-05T11:14:34.980Z,99.99
2017-02-05T11:15:34.967Z,99.99
2017-02-05T11:16:34.553Z,99.99
2017-02-05T11:17:34.940Z,99.99
2017-02-05T11:18:34.929Z,99.99
2017-02-05T11:19:34.519Z,99.99
2017-02-05T11:20:34.904Z,99.99
2017-02-05T11:21:34.894Z,99.99
2017-02-05T11:22:34.878Z,99.99
2017-02-05T11:23:34.865Z,99.99
2017-02-05T11:24:34.857Z,99.99
2017-02-05T11:25:34.844Z,99.99
2017-02-05T11:26:34.437Z,99.99
2017-02-05T11:27:34.821Z,99.99
2017-02-05T11:28:34.811Z,99.99
2017-02-05T11:29:34.400Z,99.99
2017-02-05T11:30:34.788Z,99.99
2017-02-05T11:31:34.775Z,99.99
2017-02-05T11:32:34.763Z,99.99
2017-02-05T11:33:34.751Z,99.99
2017-02-05T11:34:34.739Z,99.99
2017-02-05T11:35:34.728Z,99.99
2017-02-05T11:36:34.716Z,99.99
2017-02-05T11:37:34.307Z,99.99
2017-02-05T11:38:34.295Z,99.99
2017-02-05T11:39:34.685Z,99.99
2017-02-05T11:40:34.670Z,99.99
2017-02-05T11:41:34.657Z,99.99
2017-02-05T11:42:34.650Z,99.99
2017-02-05T11:43:34.637Z,99.99
2017-02-05T11:44:34.629Z,99.99
2017-02-05T11:45:34.611Z,99.99
2017-02-05T11:46:34.601Z,99.99
2017-02-05T11:47:34.590Z,99.99
2017-02-05T11:48:34.586Z,99.99
2017-02-05T11:49:34.567Z,99.99
2017-02-05T11:50:34.557Z,99.99
2017-02-05T11:51:34.544Z,99.99
2017-02-05T11:52:34.536Z,99.99
2017-02-05T11:53:34.522Z,99.99
2017-02-05T11:54:34.511Z,99.99
2017-02-05T11:55:34.498Z,99.99
2017-02-05T11:56:34.489Z,99.99
2017-02-05T11:57:34.477Z,99.99
2017-02-05T11:58:34.473Z,99.99
2017-02-05T11:59:34.461Z,99.99
2017-02-05T12:00:34.444Z,99.99
2017-02-05T12:01:34.433Z,99.99
2017-02-05T12:02:34.423Z,99.99
2017-02-05T12:03:34.410Z,99.99
2017-02-05T12:04:34.400Z,99.99
2017-02-05T12:05:33.990Z,99.99
2017-02-05T12:06:34.379Z,99.99
2017-02-05T12:07:33.968Z,99.99
2017-02-05T12:08:34.358Z,99.99
2017-02-05T12:09:33.948Z,99.99
2017-02-05T12:10:34.332Z,99.99
2017-02-05T12:11:33.924Z,99.99
2017-02-05T12:12:33.912Z,99.99
2017-02-05T12:13:34.299Z,99.99
2017-02-05T12:14:34.286Z,99.99
2017-02-05T12:15:34.278Z,99.99
2017-02-05T12:16:33.870Z,99.99
2017-02-05T12:17:33.858Z,99.99
2017-02-05T12:18:34.242Z,99.99
2017-02-05T12:19:34.236Z,99.99
2017-02-05T12:20:34.224Z,99.99
2017-02-05T12:21:34.252Z,99.99
2017-02-05T12:22:34.197Z,99.99
2017-02-05T12:23:34.186Z,99.99
2017-02-05T12:24:34.174Z,99.99
2017-02-05T12:25:34.163Z,99.99
2017-02-05T12:26:34.149Z,99.99
2017-02-05T12:27:34.139Z,99.99
2017-02-05T12:28:34.127Z,99.99
2017-02-05T12:29:34.113Z,99.99
2017-02-05T12:30:34.107Z,99.99
2017-02-05T12:31:34.091Z,99.99
2017-02-05T12:32:34.081Z,99.99
2017-02-05T12:33:34.065Z,99.99
2017-02-05T12:34:34.053Z,99.99
2017-02-05T12:35:34.046Z,99.99
2017-02-05T12:36:34.030Z,99.99
2017-02-05T12:37:34.019Z,99.99
2017-02-05T12:38:33.609Z,99.99
2017-02-05T12:39:33.995Z,99.99
2017-02-05T12:40:33.981Z,99.99
2017-02-05T12:41:33.969Z,99.99
2017-02-05T12:42:33.956Z,99.99
2017-02-05T12:43:33.941Z,99.99
2017-02-05T12:44:33.931Z,99.99
2017-02-05T12:45:33.923Z,99.99
2017-02-05T12:46:33.904Z,99.99
2017-02-05T12:47:33.896Z,99.99
2017-02-05T12:48:33.879Z,99.99
2017-02-05T12:49:33.869Z,99.99
2017-02-05T12:50:33.857Z,99.99
2017-02-05T12:51:33.842Z,99.99
2017-02-05T12:52:33.833Z,99.99
2017-02-05T12:53:33.819Z,99.99
2017-02-05T12:54:33.804Z,99.99
2017-02-05T12:55:33.793Z,99.99